Latest Weather Observations for Kununurra Airport

IDD60801

Issued at 3:35 pm CST Thursday 21 August 2014 (issued every 30 minutes, with the page automatically refreshed every 10 minutes)

About weather observations | Map of weather stations | Latest weather observations for NT | Other Formats
Station Details ID: 002056 Name: KUNUNURRA AERO Lat: -15.78 Lon: 128.71 Height: 44.0 m
Data from the previous 72 hours. | See also: Recent months at Kununurra Airport
Date/Time
CST
Temp
°C
App
Temp
°C
Dew
Point
Rel
Hum
%
Delta-T
°C
Wind Press
QNH
hPa
Press
MSL
hPa
Rain
since 9 am
mm
Dir
 
Spd
km/h
Gust
km/h
Spd
kts
Gust
kts
21/03:30pm 31.0 24.4 -8.9 7 16.5 SSE 19 24 10 13 1013.6 - 0.0
21/03:00pm 30.9 24.3 -8.6 7 16.4 SSE 19 24 10 13 1013.8 - 0.0
21/02:30pm 30.2 24.6 -6.5 9 15.7 SE 15 24 8 13 1014.2 - 0.0
21/02:00pm 31.0 25.0 -6.2 8 16.1 SE 17 26 9 14 1014.8 - 0.0
21/01:30pm 29.4 22.4 -7.5 8 15.4 ESE 22 30 12 16 1015.4 1015.2 0.0
21/01:00pm 28.6 22.1 -5.9 10 14.7 SE 20 30 11 16 1016.0 - 0.0
21/12:30pm 28.3 20.9 -7.0 9 14.7 ESE 24 33 13 18 1016.5 - 0.0
21/12:00pm 27.8 20.6 -5.6 11 14.2 ESE 24 35 13 19 1017.0 - 0.0
21/11:30am 27.4 21.1 -4.1 12 13.7 ESE 20 30 11 16 1017.3 - 0.0
21/11:00am 27.2 20.9 -4.1 12 13.6 ESE 20 30 11 16 1017.7 - 0.0
21/10:30am 26.4 19.2 -4.9 12 13.3 ESE 24 32 13 17 1017.9 1017.8 0.0
21/10:00am 26.1 20.0 -3.6 14 12.9 ESE 19 28 10 15 1018.0 - 0.0
21/09:30am 24.2 19.9 -1.4 18 11.4 SSE 11 19 6 10 1017.8 - 0.0
21/09:00am 21.7 19.1 3.3 30 8.8 SE 6 9 3 5 1017.4 - 0.0
21/08:30am 19.4 18.1 4.1 36 7.3 CALM 0 0 0 0 1017.1 - 0.0
21/08:28am 19.7 18.4 4.3 36 7.4 CALM 0 0 0 0 1017.1 - 0.0
21/08:00am 14.4 13.4 5.8 56 4.1 CALM 0 0 0 0 1016.8 - 0.0
21/07:30am 11.9 10.0 4.9 62 3.2 NNE 4 6 2 3 1016.3 1016.1 0.0
21/07:00am 11.5 9.0 3.9 59 3.4 ESE 6 7 3 4 1015.7 - 0.0
21/06:30am 13.7 11.1 4.3 53 4.3 SSE 7 11 4 6 1015.2 - 0.0
21/06:00am 17.7 14.7 1.0 32 7.4 S 6 11 3 6 1014.9 - 0.0
21/05:30am 12.8 11.6 4.8 58 3.7 CALM 0 0 0 0 1014.6 - 0.0
21/05:00am 16.9 13.7 2.9 39 6.4 SSE 9 13 5 7 1014.5 - 0.0
21/04:30am 18.4 13.9 2.2 34 7.4 S 15 17 8 9 1014.4 1014.2 0.0
21/04:23am 17.7 13.7 2.9 37 6.8 S 13 15 7 8 1014.3 - 0.0
21/04:00am 12.6 10.1 4.8 59 3.6 S 7 9 4 5 1014.5 - 0.0
21/03:30am 13.4 11.3 6.0 61 3.5 S 6 9 3 5 1014.6 - 0.0
21/03:00am 14.5 12.5 6.2 57 4.0 S 6 7 3 4 1014.9 - 0.0
21/02:30am 15.2 12.8 6.8 57 4.1 S 9 11 5 6 1014.9 - 0.0
21/02:00am 13.9 12.5 8.7 71 2.6 SSW 6 7 3 4 1015.2 - 0.0
21/01:30am 15.2 14.5 6.8 57 4.1 ESE 0 0 0 0 1015.4 1015.2 0.0
21/01:00am 15.2 14.9 11.3 77 2.1 SE 4 9 2 5 1015.5 - 0.0
21/12:57am 14.7 14.5 10.5 76 2.2 SE 2 9 1 5 1015.5 - 0.0
21/12:34am 14.8 14.8 9.8 72 2.6 CALM 0 0 0 0 1015.7 - 0.0
21/12:30am 14.7 14.3 8.1 64 3.3 CALM 0 0 0 0 1015.7 - 0.0
21/12:00am 15.1 13.1 6.4 56 4.2 SE 6 7 3 4 1015.9 - 0.0
 
Date/Time
CST
Temp
°C
App
Temp
°C
Dew
Point
Rel
Hum
%
Delta-T
°C
Wind Press
QNH
hPa
Press
MSL
hPa
Rain
since 9 am
mm
Dir
 
Spd
km/h
Gust
km/h
Spd
kts
Gust
kts
20/11:30pm 14.7 13.3 3.5 47 5.1 CALM 0 0 0 0 1016.0 - 0.0
20/11:00pm 15.2 14.1 5.0 50 4.8 CALM 0 0 0 0 1016.0 - 0.0
20/10:30pm 15.4 14.3 5.0 50 4.9 CALM 0 0 0 0 1015.9 1015.7 0.0
20/10:00pm 16.1 15.0 4.9 47 5.3 CALM 0 0 0 0 1015.9 - 0.0
20/09:30pm 16.8 14.8 6.4 50 5.1 E 6 7 3 4 1015.7 - 0.0
20/09:00pm 17.6 15.1 4.8 42 6.1 ESE 7 7 4 4 1015.5 - 0.0
20/08:30pm 18.6 16.2 4.3 38 6.8 SSW 6 6 3 3 1015.3 - 0.0
20/08:00pm 20.0 19.0 5.4 38 7.2 CALM 0 0 0 0 1014.9 - 0.0
20/07:30pm 22.4 19.7 3.9 30 9.0 S 7 7 4 4 1014.6 1014.4 0.0
20/07:00pm 25.5 22.7 3.0 23 11.0 S 7 9 4 5 1014.2 - 0.0
20/06:30pm 27.7 24.1 0.5 17 12.9 S 9 11 5 6 1013.9 - 0.0
20/06:00pm 29.4 25.6 -0.9 14 14.2 S 9 13 5 7 1013.7 - 0.0
20/05:30pm 30.2 26.1 -3.0 11 15.1 SSE 9 15 5 8 1013.6 - 0.0
20/05:00pm 30.1 26.2 -1.3 13 14.7 S 9 13 5 7 1013.4 - 0.0
20/04:30pm 30.6 27.0 -1.9 12 15.1 SE 7 - 4 - - 1013.2 0.0
20/04:00pm 29.9 24.9 -4.5 10 15.2 ESE 13 20 7 11 1013.6 - 0.0
20/03:30pm 30.1 25.4 -5.0 10 15.4 SE 11 19 6 10 1013.9 - 0.0
20/03:00pm 30.2 24.6 -5.9 9 15.6 SSE 15 20 8 11 1014.1 - 0.0
20/02:30pm 29.5 24.5 -4.7 10 15.0 E 13 17 7 9 1014.6 - 0.0
20/02:00pm 29.4 23.6 -5.0 10 15.0 E 17 22 9 12 1015.2 - 0.0
20/01:30pm 29.2 23.7 -5.1 10 14.9 SE 15 32 8 17 1015.7 1015.5 0.0
20/01:00pm 29.2 23.5 -3.5 11 14.6 SE 17 20 9 11 1016.2 - 0.0
20/12:30pm 28.4 22.8 -3.2 12 14.1 SE 17 26 9 14 1016.8 - 0.0
20/12:00pm 27.8 21.6 -2.9 13 13.7 SE 20 30 11 16 1017.3 - 0.0
20/11:30am 27.2 21.0 -3.1 13 13.4 SE 20 26 11 14 1017.7 - 0.0
20/11:00am 26.7 19.9 -2.0 15 12.9 E 24 33 13 18 1018.1 - 0.0
20/10:30am 25.9 18.6 -3.2 14 12.7 E 26 35 14 19 1018.5 1018.4 0.0
20/10:00am 25.6 18.8 -2.0 16 12.3 ESE 24 35 13 19 1018.6 - 0.0
20/09:52am 25.2 17.5 -2.6 16 12.2 E 28 35 15 19 1018.6 - 0.0
20/09:30am 22.8 19.3 1.2 24 10.0 SE 9 13 5 7 1018.5 - 0.0
20/09:00am 20.8 17.5 2.7 30 8.5 S 9 11 5 6 1018.3 - 0.0
20/08:30am 18.2 17.7 8.0 51 5.2 CALM 0 7 0 4 1018.1 - 0.0
20/08:00am 13.6 12.7 7.7 67 2.9 S 2 7 1 4 1017.8 - 0.0
20/07:30am 10.5 8.8 6.0 74 2.1 NE 4 7 2 4 1017.2 1017.0 0.0
20/07:00am 10.5 9.6 6.2 75 2.0 CALM 0 0 0 0 1016.8 - 0.0
20/06:30am 10.5 9.6 6.2 75 2.0 CALM 0 0 0 0 1016.5 - 0.0
20/06:00am 10.0 9.0 5.4 73 2.1 CALM 0 0 0 0 1016.3 - 0.0
20/05:30am 11.2 10.4 6.5 73 2.2 CALM 0 6 0 3 1016.0 - 0.0
20/05:00am 11.6 10.9 6.8 72 2.3 CALM 0 0 0 0 1016.0 - 0.0
20/04:30am 11.3 9.6 7.6 78 1.8 NW 6 9 3 5 1015.9 1015.7 0.0
20/04:00am 11.8 11.2 7.2 73 2.2 CALM 0 0 0 0 1015.8 - 0.0
20/03:30am 12.7 12.9 10.4 86 1.2 CALM 0 0 0 0 1015.9 - 0.0
20/03:00am 13.4 11.5 9.1 75 2.2 SSW 9 9 5 5 1016.0 - 0.0
20/02:30am 12.9 11.6 6.2 64 3.2 SE 2 7 1 4 1015.9 - 0.0
20/02:00am 13.4 11.4 6.3 62 3.4 ESE 6 7 3 4 1015.9 - 0.0
20/01:30am 12.6 9.3 4.8 59 3.6 ENE 11 15 6 8 1015.9 1015.7 0.0
20/01:00am 13.6 12.8 6.5 62 3.4 CALM 0 0 0 0 1015.9 - 0.0
20/12:30am 13.6 11.6 6.3 61 3.5 N 6 9 3 5 1016.1 - 0.0
20/12:00am 14.3 12.4 4.9 53 4.4 S 4 7 2 4 1016.1 - 0.0
 
Date/Time
CST
Temp
°C
App
Temp
°C
Dew
Point
Rel
Hum
%
Delta-T
°C
Wind Press
QNH
hPa
Press
MSL
hPa
Rain
since 9 am
mm
Dir
 
Spd
km/h
Gust
km/h
Spd
kts
Gust
kts
19/11:30pm 15.0 12.8 5.5 53 4.5 WSW 6 7 3 4 1016.2 - 0.0
19/11:00pm 14.9 13.2 5.7 54 4.4 SSE 4 7 2 4 1016.2 - 0.0
19/10:30pm 15.5 14.0 7.0 57 4.2 ESE 4 6 2 3 1016.2 1016.0 0.0
19/10:00pm 17.1 14.4 5.8 47 5.5 E 9 11 5 6 1016.1 - 0.0
19/09:30pm 17.8 15.6 5.1 43 6.1 ESE 6 7 3 4 1015.9 - 0.0
19/09:00pm 17.2 16.1 5.1 44 5.8 CALM 0 0 0 0 1015.9 - 0.0
19/08:30pm 17.7 16.5 4.7 42 6.2 CALM 0 0 0 0 1015.7 - 0.0
19/08:00pm 19.8 18.6 4.8 37 7.3 CALM 0 0 0 0 1015.4 - 0.0
19/07:30pm 21.5 20.2 4.2 32 8.4 CALM 0 0 0 0 1014.9 1014.7 0.0
19/07:00pm 24.5 21.5 1.0 21 11.0 SSW 6 9 3 5 1014.6 - 0.0
19/06:30pm 26.5 22.5 -2.0 15 12.8 SSW 9 13 5 7 1014.3 - 0.0
19/06:00pm 28.2 24.1 -2.7 13 13.9 SSW 9 11 5 6 1014.2 - 0.0
19/05:30pm 28.6 23.6 -4.7 11 14.5 S 13 17 7 9 1014.1 - 0.0
19/05:00pm 29.3 24.1 -5.9 9 15.1 SSE 13 19 7 10 1014.1 - 0.0
19/04:30pm 29.3 23.7 -6.5 9 15.2 SSW 15 20 8 11 1014.1 1013.9 0.0
19/04:00pm 30.3 23.9 -6.8 8 15.8 SSE 19 24 10 13 1014.2 - 0.0
19/03:30pm 29.4 24.6 -5.6 10 15.1 E 11 20 6 11 1014.3 - 0.0
19/03:00pm 29.4 23.7 -7.5 8 15.4 SE 15 24 8 13 1014.7 - 0.0
19/02:30pm 29.0 24.0 -4.6 11 14.7 SSE 13 22 7 12 1015.2 - 0.0
19/02:00pm 28.3 23.5 -5.7 10 14.5 SSE 11 19 6 10 1015.7 - 0.0
19/01:30pm 27.9 22.4 -5.3 11 14.2 SE 15 22 8 12 1016.2 1016.0 0.0
19/01:00pm 28.2 23.6 -4.3 11 14.2 ESE 11 19 6 10 1016.7 - 0.0
19/12:30pm 27.4 22.3 -5.1 11 13.9 ESE 13 20 7 11 1017.2 - 0.0
19/12:00pm 27.0 20.5 -5.9 11 13.8 SE 20 28 11 15 1017.9 - 0.0
19/11:30am 25.8 19.6 -5.0 12 13.0 ESE 19 26 10 14 1018.5 - 0.0
19/11:00am 25.9 19.1 -5.3 12 13.1 ESE 22 32 12 17 1019.1 - 0.0
19/10:30am 24.5 16.8 -6.2 12 12.5 ESE 26 32 14 17 1019.5 1019.4 0.0
19/10:00am 24.2 16.9 -5.9 13 12.3 ESE 24 35 13 19 1019.6 - 0.0
19/09:30am 23.5 18.1 -4.7 15 11.7 ESE 15 22 8 12 1019.7 - 0.0
19/09:00am 21.9 18.0 -1.5 21 10.2 SE 9 15 5 8 1019.7 - 0.0
19/08:30am 18.2 17.2 5.4 43 6.2 CALM 0 0 0 0 1019.6 - 0.0
19/08:00am 13.2 12.2 5.5 59 3.6 CALM 0 0 0 0 1019.3 - 0.0
19/07:30am 10.1 8.6 3.2 62 3.0 CALM 0 0 0 0 1018.9 1018.8 0.0
19/07:00am 10.3 8.9 3.4 62 3.0 CALM 0 0 0 0 1018.6 - 0.0
19/06:30am 10.8 9.4 3.5 60 3.2 CALM 0 0 0 0 1018.2 - 0.0
19/06:00am 11.1 9.3 3.6 60 3.3 E 2 6 1 3 1017.9 - 0.0
19/05:30am 11.6 10.2 3.4 57 3.6 CALM 0 0 0 0 1017.6 - 0.0
19/05:00am 13.5 11.4 2.0 45 5.0 SE 2 7 1 4 1017.1 - 0.0
19/04:30am 15.4 13.0 2.1 40 5.9 SSE 4 6 2 3 1017.0 1016.8 0.0
19/04:00am 16.4 12.5 1.4 36 6.6 SE 11 15 6 8 1017.0 - 0.0
19/03:30am 18.7 15.8 1.3 31 7.8 SSE 6 9 3 5 1017.1 - 0.0
19/03:00am 18.5 14.4 -0.5 27 8.2 SE 11 13 6 7 1017.2 - 0.0
19/02:30am 17.4 12.9 -0.3 30 7.6 E 13 17 7 9 1016.9 - 0.0
19/02:00am 15.7 13.3 2.2 40 6.0 E 4 9 2 5 1017.2 - 0.0
19/01:30am 14.1 11.8 5.6 56 4.0 ESE 7 11 4 6 1017.4 1017.3 0.0
19/01:00am 13.7 11.8 7.4 65 3.1 SSE 7 7 4 4 1017.7 - 0.0
19/12:30am 12.7 10.9 7.1 69 2.7 SE 6 7 3 4 1017.7 - 0.0
19/12:00am 14.2 12.0 6.3 59 3.8 ESE 7 9 4 5 1017.7 - 0.0
 
Date/Time
CST
Temp
°C
App
Temp
°C
Dew
Point
Rel
Hum
%
Delta-T
°C
Wind Press
QNH
hPa
Press
MSL
hPa
Rain
since 9 am
mm
Dir
 
Spd
km/h
Gust
km/h
Spd
kts
Gust
kts
18/11:30pm 13.6 11.8 5.3 57 3.9 S 4 6 2 3 1017.6 - 0.0
18/11:00pm 15.1 12.9 5.4 52 4.6 SSE 6 7 3 4 1017.6 - 0.0
18/10:30pm 14.9 13.9 5.7 54 4.4 CALM 0 0 0 0 1017.5 1017.4 0.0
18/10:00pm 14.8 12.6 5.3 53 4.5 ESE 6 7 3 4 1017.4 - 0.0
18/09:30pm 16.2 14.2 6.4 52 4.8 ESE 6 6 3 3 1017.3 - 0.0
18/09:00pm 16.2 13.8 4.5 45 5.5 SSE 6 7 3 4 1017.1 - 0.0
18/08:30pm 17.8 15.7 6.0 46 5.8 SSE 6 9 3 5 1016.8 - 0.0
18/08:00pm 18.6 16.2 4.3 38 6.8 SSE 6 9 3 5 1016.5 - 0.0
18/07:55pm 18.6 15.8 3.1 35 7.2 SSE 7 9 4 5 1016.4 - 0.0
18/07:30pm 23.6 19.9 0.2 21 10.7 SSE 9 11 5 6 1016.0 1015.8 0.0
18/07:00pm 24.9 21.2 -0.2 19 11.5 SSE 9 11 5 6 1015.7 - 0.0
18/06:30pm 26.7 23.4 -0.2 17 12.5 S 7 9 4 5 1015.5 - 0.0
18/06:00pm 28.2 24.6 -1.8 14 13.7 S 7 9 4 5 1015.1 - 0.0
18/05:30pm 28.7 24.3 -5.5 10 14.7 S 9 13 5 7 1014.9 - 0.0

Other Formats:

Comma delimited format used in spreadsheet applications
http://www.bom.gov.au/fwo/IDD60801/IDD60801.94216.axf

JavaScript Object Notation format (JSON) in row-major order
http://www.bom.gov.au/fwo/IDD60801/IDD60801.94216.json